createdAt,value
2023-05-08T00:00:43.234Z,6.40
2023-05-08T00:03:11.186Z,7.20
2023-05-08T00:05:39.135Z,6.57
2023-05-08T00:08:07.405Z,7.70
2023-05-08T00:10:35.515Z,9.52
2023-05-08T00:13:04.873Z,10.88
2023-05-08T00:15:32.908Z,13.40
2023-05-08T00:18:01.031Z,11.60
2023-05-08T00:20:29.028Z,11.70
2023-05-08T00:22:57.946Z,12.82
2023-05-08T00:25:26.040Z,13.00
2023-05-08T00:27:54.005Z,16.03
2023-05-08T00:30:23.644Z,17.58
2023-05-08T00:32:51.984Z,15.85
2023-05-08T00:35:20.140Z,15.73
2023-05-08T00:37:48.037Z,16.80
2023-05-08T00:40:16.123Z,19.80
2023-05-08T00:42:44.012Z,19.38
2023-05-08T00:45:12.697Z,19.90
2023-05-08T00:47:42.166Z,21.20
2023-05-08T00:50:11.949Z,22.88
2023-05-08T00:52:41.108Z,26.98
2023-05-08T00:55:09.683Z,28.50
2023-05-08T00:57:37.848Z,31.40
2023-05-08T01:00:07.678Z,32.25
2023-05-08T01:02:36.871Z,29.88
2023-05-08T01:05:07.596Z,28.13
2023-05-08T01:07:35.493Z,27.50
2023-05-08T01:10:03.474Z,28.80
2023-05-08T01:12:48.775Z,26.67
2023-05-08T01:15:19.973Z,31.17
2023-05-08T01:18:00.973Z,31.48
2023-05-08T01:20:40.887Z,35.28
2023-05-08T01:23:36.431Z,35.70
2023-05-08T01:26:37.702Z,31.60
2023-05-08T01:29:30.678Z,33.92
2023-05-08T01:32:15.627Z,35.53
2023-05-08T01:34:52.891Z,30.10
2023-05-08T01:37:28.328Z,35.63
2023-05-08T01:40:04.113Z,34.50
2023-05-08T01:42:43.013Z,31.83
2023-05-08T01:45:16.633Z,30.95
2023-05-08T01:47:49.917Z,35.70
2023-05-08T01:50:23.199Z,33.67
2023-05-08T01:52:58.195Z,33.25
2023-05-08T01:55:30.006Z,34.40
2023-05-08T01:58:00.651Z,31.63
2023-05-08T02:00:29.170Z,32.45
2023-05-08T02:03:00.061Z,29.42
2023-05-08T02:05:29.526Z,30.25
2023-05-08T02:07:58.216Z,30.33
2023-05-08T02:10:27.439Z,32.30
2023-05-08T02:12:57.095Z,34.97
2023-05-08T02:15:26.895Z,41.28
2023-05-08T02:17:56.361Z,37.00
2023-05-08T02:20:27.306Z,40.00
2023-05-08T02:22:55.630Z,51.75
2023-05-08T02:25:24.810Z,52.07
2023-05-08T02:27:54.886Z,47.20
2023-05-08T02:30:25.479Z,45.97
2023-05-08T02:32:55.251Z,51.80
2023-05-08T02:35:25.959Z,49.77
2023-05-08T02:37:56.404Z,51.17
2023-05-08T02:40:27.284Z,51.28
2023-05-08T02:42:56.021Z,49.65
2023-05-08T02:45:26.926Z,57.90
2023-05-08T02:48:08.401Z,56.47
2023-05-08T02:50:52.007Z,51.15
2023-05-08T02:53:25.328Z,59.33
2023-05-08T02:55:58.136Z,62.75
2023-05-08T02:58:33.132Z,62.30
2023-05-08T03:01:06.446Z,60.83
2023-05-08T03:03:39.109Z,64.00
2023-05-08T03:06:13.308Z,62.58
2023-05-08T03:08:43.021Z,63.95
2023-05-08T03:11:16.848Z,64.73
2023-05-08T03:13:47.804Z,72.28
2023-05-08T03:16:21.634Z,72.45
2023-05-08T03:18:54.379Z,71.17
2023-05-08T03:21:28.226Z,72.60
2023-05-08T03:23:58.408Z,73.50
2023-05-08T03:26:27.294Z,68.70
2023-05-08T03:28:57.499Z,74.60
2023-05-08T03:31:26.705Z,75.23
2023-05-08T03:33:55.583Z,71.87
2023-05-08T03:36:28.826Z,80.63
2023-05-08T03:38:56.875Z,78.53
2023-05-08T03:41:26.314Z,72.15
2023-05-08T03:43:54.909Z,73.87
2023-05-08T03:46:24.133Z,78.53
2023-05-08T03:48:54.240Z,69.63
2023-05-08T03:51:24.038Z,72.10
2023-05-08T03:53:51.944Z,76.17
2023-05-08T03:56:19.908Z,73.07
2023-05-08T03:58:55.826Z,78.50
2023-05-08T04:01:29.670Z,77.93
2023-05-08T04:04:07.805Z,77.40
2023-05-08T04:06:49.340Z,73.70
2023-05-08T04:09:21.588Z,77.68
2023-05-08T04:11:58.058Z,76.82
2023-05-08T04:14:28.590Z,76.95
2023-05-08T04:17:03.973Z,74.77
2023-05-08T04:19:37.846Z,72.00
2023-05-08T04:22:08.944Z,73.53
2023-05-08T04:24:41.815Z,72.35
2023-05-08T04:27:11.127Z,70.72
2023-05-08T04:29:39.139Z,69.00
2023-05-08T04:32:07.743Z,66.72
2023-05-08T04:34:36.389Z,65.80
2023-05-08T04:37:04.715Z,73.70
2023-05-08T04:39:33.987Z,75.03
2023-05-08T04:42:03.733Z,68.40
2023-05-08T04:44:32.198Z,75.72
2023-05-08T04:47:00.077Z,69.85
2023-05-08T04:49:27.955Z,73.38
2023-05-08T04:51:55.895Z,73.83
2023-05-08T04:54:23.868Z,69.68
2023-05-08T04:56:53.105Z,69.65
2023-05-08T04:59:21.058Z,69.85
2023-05-08T05:01:49.007Z,69.95
2023-05-08T05:04:16.952Z,70.85
2023-05-08T05:06:44.949Z,71.07
2023-05-08T05:09:12.851Z,64.43
2023-05-08T05:11:40.840Z,67.85
2023-05-08T05:14:10.167Z,64.20
2023-05-08T05:16:38.198Z,65.82
2023-05-08T05:19:06.244Z,67.93
2023-05-08T05:21:34.141Z,69.70
2023-05-08T05:24:02.052Z,67.20
2023-05-08T05:26:29.965Z,63.47
2023-05-08T05:28:58.410Z,62.75
2023-05-08T05:31:28.889Z,65.30
2023-05-08T05:33:56.805Z,66.20
2023-05-08T05:36:24.871Z,63.15
2023-05-08T05:38:52.781Z,67.22
2023-05-08T05:41:20.714Z,67.05
2023-05-08T05:43:48.710Z,69.70
2023-05-08T05:46:16.651Z,61.93
2023-05-08T05:48:45.927Z,64.70
2023-05-08T05:51:13.861Z,71.65
2023-05-08T05:53:41.785Z,66.72
2023-05-08T05:56:09.721Z,63.03
2023-05-08T05:58:37.629Z,67.88
2023-05-08T06:01:05.745Z,64.35
2023-05-08T06:03:33.728Z,65.60
2023-05-08T06:06:03.146Z,67.50
2023-05-08T06:08:31.049Z,68.75
2023-05-08T06:10:58.978Z,70.78
2023-05-08T06:13:26.932Z,70.13
2023-05-08T06:15:57.025Z,70.55
2023-05-08T06:18:25.217Z,69.95
2023-05-08T06:20:57.606Z,70.40
2023-05-08T06:23:27.006Z,66.80
2023-05-08T06:25:55.274Z,70.32
2023-05-08T06:28:25.847Z,71.38
2023-05-08T06:30:54.098Z,71.07
2023-05-08T06:33:23.571Z,71.18
2023-05-08T06:35:52.713Z,68.53
2023-05-08T06:38:20.619Z,69.53
2023-05-08T06:40:50.604Z,69.57
2023-05-08T06:43:18.483Z,69.07
2023-05-08T06:45:46.351Z,71.38
2023-05-08T06:48:14.484Z,68.85
2023-05-08T06:50:43.219Z,69.00
2023-05-08T06:53:11.230Z,64.35
2023-05-08T06:55:39.110Z,71.97
2023-05-08T06:58:08.529Z,68.07
2023-05-08T07:00:36.440Z,67.15
2023-05-08T07:03:04.599Z,66.28
2023-05-08T07:05:32.624Z,63.90
2023-05-08T07:08:00.520Z,63.15
2023-05-08T07:10:28.396Z,67.88
2023-05-08T07:12:56.316Z,64.05
2023-05-08T07:15:26.837Z,63.07
2023-05-08T07:17:55.458Z,65.30
2023-05-08T07:20:24.334Z,67.38
2023-05-08T07:22:52.296Z,67.20
2023-05-08T07:25:21.074Z,66.68
2023-05-08T07:27:49.202Z,59.05
2023-05-08T07:30:17.390Z,64.88
2023-05-08T07:32:46.658Z,67.65
2023-05-08T07:35:15.630Z,64.38
2023-05-08T07:37:43.802Z,65.57
2023-05-08T07:40:12.179Z,68.55
2023-05-08T07:42:41.650Z,68.72
2023-05-08T07:45:10.847Z,72.30
2023-05-08T07:47:38.926Z,73.32
2023-05-08T07:50:08.864Z,69.68
2023-05-08T07:52:36.744Z,67.55
2023-05-08T07:55:05.176Z,72.10
2023-05-08T07:57:38.500Z,71.38
2023-05-08T08:00:09.655Z,74.80
2023-05-08T08:02:38.259Z,82.13
2023-05-08T08:05:08.264Z,77.72
2023-05-08T08:07:36.426Z,75.10
2023-05-08T08:10:05.409Z,80.68
2023-05-08T08:12:33.477Z,77.93
2023-05-08T08:15:01.457Z,71.07
2023-05-08T08:17:29.515Z,72.13
2023-05-08T08:19:57.670Z,73.33
2023-05-08T08:22:27.488Z,72.78
2023-05-08T08:24:56.677Z,72.45
2023-05-08T08:27:24.764Z,64.45
2023-05-08T08:30:04.472Z,66.97
2023-05-08T08:32:41.411Z,61.28
2023-05-08T08:35:10.621Z,63.17
2023-05-08T08:37:40.050Z,59.75
2023-05-08T08:40:09.368Z,62.80
2023-05-08T08:42:37.412Z,61.55
2023-05-08T08:45:06.709Z,60.35
2023-05-08T08:47:38.226Z,60.13
2023-05-08T08:50:08.406Z,58.83
2023-05-08T08:52:44.375Z,51.65
2023-05-08T08:55:15.934Z,58.35
2023-05-08T08:57:52.539Z,55.92
2023-05-08T09:00:22.182Z,57.50
2023-05-08T09:02:50.289Z,56.80
2023-05-08T09:05:19.434Z,66.32
2023-05-08T09:07:49.470Z,64.05
2023-05-08T09:10:18.312Z,58.07
2023-05-08T09:12:46.314Z,60.60
2023-05-08T09:15:14.759Z,57.53
2023-05-08T09:17:42.901Z,55.50
2023-05-08T09:20:12.377Z,59.33
2023-05-08T09:22:40.621Z,60.58
2023-05-08T09:25:11.177Z,63.97
2023-05-08T09:27:39.362Z,57.43
2023-05-08T09:30:08.684Z,60.03
2023-05-08T09:32:38.049Z,58.30
2023-05-08T09:35:07.939Z,56.70
2023-05-08T09:37:39.266Z,52.83
2023-05-08T09:40:19.294Z,53.95
2023-05-08T09:42:48.662Z,56.33
2023-05-08T09:45:31.144Z,58.10
2023-05-08T09:47:59.597Z,57.75
2023-05-08T09:50:27.876Z,57.75
2023-05-08T09:52:56.084Z,57.20
2023-05-08T09:55:25.626Z,59.40
2023-05-08T09:57:55.994Z,59.80
2023-05-08T10:00:24.864Z,57.67
2023-05-08T10:02:57.619Z,63.53
2023-05-08T10:05:27.526Z,61.22
2023-05-08T10:07:56.455Z,56.30
2023-05-08T10:10:29.153Z,54.42
2023-05-08T10:12:58.883Z,53.55
2023-05-08T10:15:31.070Z,50.17
2023-05-08T10:18:05.280Z,52.40
2023-05-08T10:20:34.746Z,46.90
2023-05-08T10:23:03.953Z,49.37
2023-05-08T10:25:36.427Z,46.70
2023-05-08T10:28:14.483Z,47.53
2023-05-08T10:30:48.459Z,51.35
2023-05-08T10:33:21.065Z,46.30
2023-05-08T10:35:49.765Z,48.65
2023-05-08T10:38:18.284Z,43.50
2023-05-08T10:40:50.640Z,40.30
2023-05-08T10:43:19.786Z,43.53
2023-05-08T10:45:48.679Z,49.57
2023-05-08T10:48:27.531Z,44.60
2023-05-08T10:51:04.028Z,50.05
2023-05-08T10:53:39.960Z,50.00
2023-05-08T10:56:09.537Z,53.45
2023-05-08T10:58:39.482Z,52.97
2023-05-08T11:01:17.686Z,52.55
2023-05-08T11:03:47.890Z,53.78
2023-05-08T11:06:16.491Z,51.13
2023-05-08T11:08:51.921Z,48.28
2023-05-08T11:11:29.574Z,52.05
2023-05-08T11:14:10.530Z,43.67
2023-05-08T11:17:10.523Z,50.00
2023-05-08T11:19:39.471Z,46.42
2023-05-08T11:22:28.906Z,51.30
2023-05-08T11:24:59.069Z,49.50
2023-05-08T11:28:02.097Z,54.75
2023-05-08T11:30:38.394Z,43.72
2023-05-08T11:33:17.212Z,44.40
2023-05-08T11:35:53.886Z,40.70
2023-05-08T11:38:24.729Z,41.45
2023-05-08T11:41:00.717Z,42.72
2023-05-08T11:44:14.845Z,41.95
2023-05-08T11:46:45.150Z,40.65
2023-05-08T11:49:15.460Z,40.90
2023-05-08T11:51:45.270Z,37.08
2023-05-08T11:54:17.835Z,39.45
2023-05-08T11:56:48.104Z,33.23
2023-05-08T11:59:17.828Z,34.80
2023-05-08T12:01:53.616Z,38.60
2023-05-08T12:04:28.487Z,30.13
2023-05-08T12:06:59.873Z,28.50
2023-05-08T12:09:28.307Z,30.13
2023-05-08T12:11:59.028Z,29.75
2023-05-08T12:14:28.464Z,31.10
2023-05-08T12:16:56.526Z,28.95
2023-05-08T12:19:24.550Z,27.27
2023-05-08T12:21:52.606Z,28.07
2023-05-08T12:24:23.218Z,26.55
2023-05-08T12:26:54.344Z,27.25
2023-05-08T12:29:22.931Z,24.58
2023-05-08T12:31:52.919Z,22.48
2023-05-08T12:34:21.474Z,25.52
2023-05-08T12:36:51.227Z,28.45
2023-05-08T12:39:20.016Z,24.67
2023-05-08T12:41:48.872Z,24.85
2023-05-08T12:44:21.305Z,22.48
2023-05-08T12:46:52.823Z,25.02
2023-05-08T12:49:28.629Z,23.77
2023-05-08T12:52:07.118Z,22.75
2023-05-08T12:54:39.845Z,22.80
2023-05-08T12:57:12.204Z,22.48
2023-05-08T12:59:40.644Z,23.27
2023-05-08T13:02:15.672Z,22.08
2023-05-08T13:04:43.798Z,22.58
2023-05-08T13:07:12.317Z,22.83
2023-05-08T13:09:41.026Z,23.63
2023-05-08T13:12:09.499Z,22.88
2023-05-08T13:14:37.453Z,23.98
2023-05-08T13:17:05.412Z,21.20
2023-05-08T13:19:35.205Z,24.58
2023-05-08T13:22:03.112Z,24.50
2023-05-08T13:24:31.087Z,24.70
2023-05-08T13:26:59.053Z,24.23
2023-05-08T13:29:26.988Z,22.70
2023-05-08T13:31:55.027Z,27.75
2023-05-08T13:34:22.992Z,28.40
2023-05-08T13:36:52.367Z,25.40
2023-05-08T13:39:20.711Z,27.85
2023-05-08T13:41:48.654Z,29.58
2023-05-08T13:44:16.520Z,26.93
2023-05-08T13:46:44.463Z,29.08
2023-05-08T13:49:12.433Z,30.43
2023-05-08T13:51:40.274Z,31.15
2023-05-08T13:54:09.520Z,30.00
2023-05-08T13:56:37.558Z,31.83
2023-05-08T13:59:05.469Z,28.88
2023-05-08T14:01:33.401Z,30.65
2023-05-08T14:04:01.310Z,33.22
2023-05-08T14:06:29.271Z,33.60
2023-05-08T14:08:57.473Z,44.00
2023-05-08T14:11:27.169Z,44.92
2023-05-08T14:13:55.052Z,43.03
2023-05-08T14:16:23.197Z,47.80
2023-05-08T14:18:51.169Z,43.30
2023-05-08T14:21:19.529Z,51.17
2023-05-08T14:23:47.453Z,56.95
2023-05-08T14:26:15.461Z,63.05
2023-05-08T14:28:44.690Z,66.75
2023-05-08T14:31:12.613Z,71.67
2023-05-08T14:33:40.540Z,97.45
2023-05-08T14:36:09.358Z,102.17
2023-05-08T14:38:37.246Z,119.20
2023-05-08T14:41:05.229Z,127.90
2023-05-08T14:43:33.340Z,116.93
2023-05-08T14:46:02.665Z,141.25
2023-05-08T14:48:30.634Z,132.70
2023-05-08T14:50:58.893Z,125.65
2023-05-08T14:53:27.020Z,141.15
2023-05-08T14:55:55.296Z,143.73
2023-05-08T14:58:23.687Z,138.20
2023-05-08T15:00:51.665Z,150.48
2023-05-08T15:03:21.154Z,138.60
2023-05-08T15:05:49.154Z,136.32
2023-05-08T15:08:17.364Z,140.68
2023-05-08T15:10:45.376Z,130.63
2023-05-08T15:13:13.509Z,132.85
2023-05-08T15:15:41.480Z,125.07
2023-05-08T15:18:09.394Z,119.00
2023-05-08T15:20:38.663Z,114.82
2023-05-08T15:23:06.674Z,113.07
2023-05-08T15:25:34.668Z,106.32
2023-05-08T15:28:02.618Z,101.55
2023-05-08T15:30:30.511Z,103.28
2023-05-08T15:32:58.453Z,95.90
2023-05-08T15:35:26.671Z,90.32
2023-05-08T15:37:55.911Z,85.13
2023-05-08T15:40:23.884Z,86.87
2023-05-08T15:42:51.758Z,81.43
2023-05-08T15:45:19.760Z,74.35
2023-05-08T15:47:47.923Z,70.68
2023-05-08T15:50:15.966Z,74.20
2023-05-08T15:52:43.915Z,80.72
2023-05-08T15:55:13.524Z,80.00
2023-05-08T15:57:41.689Z,79.40
2023-05-08T16:00:10.782Z,82.72
2023-05-08T16:02:38.802Z,86.32
2023-05-08T16:05:07.376Z,80.53
2023-05-08T16:07:35.356Z,84.07
2023-05-08T16:10:05.233Z,82.20
2023-05-08T16:12:35.339Z,83.60
2023-05-08T16:15:03.192Z,85.95
2023-05-08T16:17:31.145Z,79.68
2023-05-08T16:20:00.609Z,80.65
2023-05-08T16:22:28.607Z,83.10
2023-05-08T16:24:56.645Z,78.47
2023-05-08T16:27:24.540Z,81.93
2023-05-08T16:29:53.830Z,79.00
2023-05-08T16:32:21.779Z,78.13
2023-05-08T16:34:49.639Z,84.10
2023-05-08T16:37:17.513Z,77.43
2023-05-08T16:39:47.267Z,79.55
2023-05-08T16:42:15.177Z,72.87
2023-05-08T16:44:43.008Z,73.75
2023-05-08T16:47:12.476Z,72.00
2023-05-08T16:49:40.539Z,65.35
2023-05-08T16:52:08.474Z,69.20
2023-05-08T16:54:36.400Z,68.00
2023-05-08T16:57:04.533Z,68.80
2023-05-08T16:59:32.596Z,69.28
2023-05-08T17:02:00.407Z,65.72
2023-05-08T17:04:30.891Z,65.17
2023-05-08T17:06:59.928Z,63.38
2023-05-08T17:09:28.509Z,61.83
2023-05-08T17:11:58.072Z,60.28
2023-05-08T17:14:26.159Z,59.78
2023-05-08T17:16:54.102Z,56.15
2023-05-08T17:19:22.164Z,61.58
2023-05-08T17:21:51.518Z,58.80
2023-05-08T17:24:20.177Z,55.28
2023-05-08T17:26:48.128Z,52.63
2023-05-08T17:29:16.032Z,51.78
2023-05-08T17:31:44.031Z,49.40
2023-05-08T17:34:11.970Z,49.92
2023-05-08T17:36:39.936Z,47.20
2023-05-08T17:39:09.220Z,47.83
2023-05-08T17:41:37.119Z,48.60
2023-05-08T17:44:05.335Z,44.88
2023-05-08T17:46:33.269Z,48.90
2023-05-08T17:49:01.161Z,46.00
2023-05-08T17:51:29.074Z,47.03
2023-05-08T17:53:57.178Z,47.37
2023-05-08T17:56:26.646Z,45.40
2023-05-08T17:58:58.195Z,43.70
2023-05-08T18:01:26.533Z,46.72
2023-05-08T18:03:54.701Z,45.03
2023-05-08T18:06:22.723Z,48.20
2023-05-08T18:08:50.627Z,43.78
2023-05-08T18:11:19.268Z,40.85
2023-05-08T18:13:48.981Z,45.67
2023-05-08T18:16:18.514Z,42.03
2023-05-08T18:18:46.770Z,38.00
2023-05-08T18:21:15.114Z,42.33
2023-05-08T18:23:43.137Z,43.38
2023-05-08T18:26:14.592Z,44.17
2023-05-08T18:28:42.537Z,43.83
2023-05-08T18:31:12.079Z,48.58
2023-05-08T18:33:40.206Z,47.97
2023-05-08T18:36:08.344Z,48.55
2023-05-08T18:38:36.584Z,49.42
2023-05-08T18:41:05.043Z,46.53
2023-05-08T18:43:32.908Z,50.08
2023-05-08T18:46:00.883Z,47.00
2023-05-08T18:48:30.237Z,49.63
2023-05-08T18:50:58.603Z,46.47
2023-05-08T18:53:26.871Z,47.72
2023-05-08T18:55:54.799Z,46.33
2023-05-08T18:58:22.781Z,46.42
2023-05-08T19:00:50.714Z,45.00
2023-05-08T19:03:19.192Z,46.28
2023-05-08T19:05:48.490Z,44.00
2023-05-08T19:08:16.616Z,42.67
2023-05-08T19:10:44.678Z,43.88
2023-05-08T19:13:12.663Z,42.58
2023-05-08T19:15:40.669Z,42.05
2023-05-08T19:18:09.029Z,39.42
2023-05-08T19:20:37.060Z,38.03
2023-05-08T19:23:06.357Z,39.57
2023-05-08T19:25:34.338Z,37.93
2023-05-08T19:28:03.981Z,36.70
2023-05-08T19:30:32.033Z,37.42
2023-05-08T19:32:59.970Z,38.50
2023-05-08T19:35:27.936Z,35.92
2023-05-08T19:37:55.865Z,36.03
2023-05-08T19:40:25.279Z,35.45
2023-05-08T19:42:53.199Z,30.73
2023-05-08T19:45:21.183Z,34.45
2023-05-08T19:47:49.549Z,34.17
2023-05-08T19:50:18.814Z,32.75
2023-05-08T19:52:48.460Z,31.00
2023-05-08T19:55:16.743Z,31.15
2023-05-08T19:57:46.164Z,31.55
2023-05-08T20:00:14.461Z,28.07
2023-05-08T20:02:42.610Z,30.25
2023-05-08T20:05:21.657Z,29.90
2023-05-08T20:07:50.186Z,30.77
2023-05-08T20:10:18.112Z,29.30
2023-05-08T20:12:47.525Z,28.05
2023-05-08T20:15:15.660Z,29.25
2023-05-08T20:17:43.653Z,27.65
2023-05-08T20:20:12.965Z,29.70
2023-05-08T20:22:41.052Z,29.63
2023-05-08T20:25:09.472Z,31.10
2023-05-08T20:27:37.387Z,27.02
2023-05-08T20:30:07.934Z,29.88
2023-05-08T20:32:35.930Z,30.90
2023-05-08T20:35:04.197Z,30.20
2023-05-08T20:37:32.087Z,31.63
2023-05-08T20:40:00.007Z,30.23
2023-05-08T20:42:27.997Z,31.05
2023-05-08T20:44:55.964Z,32.00
2023-05-08T20:47:25.306Z,33.60
2023-05-08T20:49:53.235Z,36.30
2023-05-08T20:52:21.250Z,32.75
2023-05-08T20:54:50.367Z,33.80
2023-05-08T20:57:18.712Z,33.05
2023-05-08T20:59:47.234Z,34.35
2023-05-08T21:02:15.237Z,37.08
2023-05-08T21:04:44.606Z,33.92
2023-05-08T21:07:12.596Z,35.28
2023-05-08T21:09:40.560Z,36.08
2023-05-08T21:12:09.815Z,37.97
2023-05-08T21:14:37.987Z,38.67
2023-05-08T21:17:06.038Z,38.40
2023-05-08T21:19:34.006Z,38.13
2023-05-08T21:22:03.312Z,38.35
2023-05-08T21:24:31.375Z,34.28
2023-05-08T21:26:59.743Z,38.70
2023-05-08T21:29:27.767Z,36.00
2023-05-08T21:31:56.175Z,37.30
2023-05-08T21:34:24.153Z,30.00
2023-05-08T21:36:52.004Z,35.10
2023-05-08T21:39:21.171Z,36.92
2023-05-08T21:41:49.081Z,35.22
2023-05-08T21:44:16.918Z,34.22
2023-05-08T21:46:44.938Z,35.38
2023-05-08T21:49:12.881Z,33.25
2023-05-08T21:51:40.756Z,30.50
2023-05-08T21:54:09.864Z,32.90
2023-05-08T21:56:39.199Z,28.00
2023-05-08T21:59:08.165Z,33.73
2023-05-08T22:01:36.193Z,31.23
2023-05-08T22:04:04.127Z,31.92
2023-05-08T22:06:33.011Z,28.92
2023-05-08T22:09:00.902Z,27.42
2023-05-08T22:11:28.836Z,30.08
2023-05-08T22:13:58.087Z,28.45
2023-05-08T22:16:26.046Z,27.38
2023-05-08T22:18:53.968Z,27.70
2023-05-08T22:21:21.850Z,28.52
2023-05-08T22:23:49.769Z,31.98
2023-05-08T22:26:17.621Z,29.47
2023-05-08T22:28:45.455Z,28.45
2023-05-08T22:31:14.726Z,30.05
2023-05-08T22:33:42.540Z,31.67
2023-05-08T22:36:11.012Z,27.55
2023-05-08T22:38:40.220Z,28.50
2023-05-08T22:41:08.220Z,29.73
2023-05-08T22:43:36.878Z,30.98
2023-05-08T22:46:05.170Z,28.45
2023-05-08T22:48:34.812Z,30.60
2023-05-08T22:51:03.035Z,28.38
2023-05-08T22:53:30.973Z,31.13
2023-05-08T22:55:58.846Z,27.33
2023-05-08T22:58:27.234Z,31.40
2023-05-08T23:00:55.657Z,29.88
2023-05-08T23:03:23.731Z,32.35
2023-05-08T23:05:53.005Z,31.25
2023-05-08T23:08:22.121Z,35.72
2023-05-08T23:10:50.110Z,30.45
2023-05-08T23:13:18.158Z,34.10
2023-05-08T23:15:46.097Z,37.90
2023-05-08T23:18:14.028Z,33.83
2023-05-08T23:20:41.958Z,36.05
2023-05-08T23:23:11.208Z,33.95
2023-05-08T23:25:39.082Z,32.55
2023-05-08T23:28:07.173Z,38.80
2023-05-08T23:30:35.112Z,34.90
2023-05-08T23:33:03.058Z,36.25
2023-05-08T23:35:31.050Z,37.20
2023-05-08T23:37:58.987Z,37.05
2023-05-08T23:40:28.388Z,37.85
2023-05-08T23:42:56.554Z,40.30
2023-05-08T23:45:24.401Z,39.15
2023-05-08T23:47:52.288Z,38.35
2023-05-08T23:50:20.423Z,40.43
2023-05-08T23:52:48.296Z,42.80
2023-05-08T23:55:16.285Z,42.88
2023-05-08T23:57:45.590Z,46.83
